EDT,Max TemperatureF,Mean TemperatureF,Min TemperatureF,Max Dew PointF,MeanDew PointF,Min DewpointF,Max Humidity, Mean Humidity, Min Humidity, Max Sea Level PressureIn, Mean Sea Level PressureIn, Min Sea Level PressureIn, Max VisibilityMiles, Mean VisibilityMiles, Min VisibilityMiles, Max Wind SpeedMPH, Mean Wind SpeedMPH, Max Gust SpeedMPH,PrecipitationIn, CloudCover, Events, WindDirDegrees
2013-4-1,61,51,40,49,42,29,100,69,38,30.02,29.92,29.86,10,4,0,26,9,34,0.00,6,Fog,262
2013-4-2,53,42,31,29,21,15,75,50,24,30.19,30.12,30.02,10,10,10,16,6,25,0.00,2,,293
2013-4-3,55,41,26,25,18,13,75,47,19,30.28,30.23,30.17,10,10,10,10,3,15,0.00,4,,23
2013-4-4,45,41,37,36,31,14,92,61,30,30.19,30.11,29.97,10,6,2,10,4,15,0.97,8,Rain,57
2013-4-5,57,47,37,41,38,36,93,72,51,30.08,30.01,29.96,10,6,1,14,4,18,0.01,6,Rain,214
2013-4-6,71,51,31,40,33,26,100,62,23,30.20,30.13,30.05,10,8,0,13,3,18,0.00,2,Fog,146
2013-4-7,72,57,42,43,38,31,71,50,28,30.12,30.07,30.01,10,10,10,24,6,30,0.00,3,,240
2013-4-8,77,61,44,49,45,41,89,64,38,30.09,30.04,29.98,10,10,10,16,4,25,0.00,3,,256
2013-4-9,81,63,45,54,50,44,93,64,35,30.16,30.08,30.01,10,10,10,15,3,22,0.00,2,,243
2013-4-10,83,67,51,56,54,50,96,67,37,30.08,29.99,29.87,10,10,8,14,3,19,0.00,1,,224
2013-4-11,82,68,54,62,53,47,93,62,30,29.88,29.77,29.64,10,10,4,22,5,30,0.79,5,Rain-Thunderstorm,208
2013-4-12,64,55,45,61,52,38,100,73,46,29.90,29.72,29.54,10,8,1,20,9,27,0.22,6,Rain-Thunderstorm,238
2013-4-13,68,53,38,40,36,30,92,59,26,30.03,29.97,29.91,10,10,10,18,6,24,0.00,1,,262
2013-4-14,75,56,37,51,38,35,86,56,25,30.06,29.99,29.93,10,10,8,18,4,22,0.07,5,Rain,157
2013-4-15,76,65,53,53,51,49,93,68,43,30.10,29.99,29.91,10,10,10,14,3,20,T,5,,63
2013-4-16,81,65,49,56,53,47,100,68,36,30.22,30.14,30.09,10,10,9,14,3,17,0.00,2,,240
2013-4-17,68,62,55,60,58,55,100,87,73,30.33,30.19,30.06,10,7,2,21,4,27,0.70,7,Rain-Thunderstorm,45
2013-4-18,79,66,52,60,54,51,100,72,43,30.08,29.99,29.82,10,8,2,20,6,27,0.00,4,,149
2013-4-19,72,59,46,62,51,31,93,73,53,29.99,29.78,29.65,10,8,2,25,12,35,0.32,8,Rain,229
2013-4-20,59,47,35,33,29,25,75,52,28,30.28,30.16,30.01,10,10,10,16,7,20,0.00,2,,283
2013-4-21,65,49,33,33,31,28,89,58,26,30.40,30.33,30.26,10,10,10,16,5,22,0.00,4,,87
2013-4-22,68,53,38,39,35,28,79,54,29,30.35,30.25,30.14,10,10,10,12,4,17,0.00,1,,75
2013-4-23,72,55,38,45,36,26,77,53,29,30.22,30.12,30.01,10,10,10,9,1,13,0.00,3,,97
2013-4-24,73,59,45,59,50,42,92,68,44,30.16,30.01,29.92,10,9,1,32,8,43,0.25,7,Rain,253
2013-4-25,63,50,37,40,35,31,85,58,30,30.33,30.26,30.18,10,10,10,13,4,16,0.00,3,,306
2013-4-26,68,51,34,41,33,26,92,57,22,30.43,30.36,30.28,10,9,1,9,2,13,0.00,4,,279
2013-4-27,61,57,52,53,48,39,93,72,51,30.32,30.25,30.13,10,10,6,8,3,11,0.16,8,Rain,105
2013-4-28,59,55,50,54,50,44,100,81,62,30.18,30.06,29.94,10,8,2,18,5,30,0.64,7,Rain,150
2013-4-29,71,60,49,54,51,48,100,77,53,30.04,29.98,29.92,10,8,0,13,3,18,0.00,5,Fog,304
2013-4-30,80,64,47,55,51,47,100,70,39,30.08,30.01,29.95,10,8,1,10,2,16,0.00,2,,139